Time;durP1;ratioP1;P1;durP2;ratioP2;P2;SDS_P1;SDS_P2;PMS_P1;PMS_P2;Temp;Humidity;BMP_temperature;BMP_pressure;BME280_temperature;BME280_humidity;BME280_pressure;Samples;Min_cycle;Max_cycle;Signal;HPM_P1;HPM_P2
2021/03/08 00:00:55;;;;;;;2.55;0.90;;;;;;;-4.31;69.47;97693.19;5032616;28;20326;-57
2021/03/08 00:03:23;;;;;;;1.65;0.80;;;;;;;-4.13;69.02;97684.81;5031561;28;20234;-55
2021/03/08 00:05:49;;;;;;;1.35;0.77;;;;;;;-4.24;70.95;97689.84;5032179;28;20053;-55
2021/03/08 00:08:15;;;;;;;0.95;0.80;;;;;;;-4.22;69.67;97688.16;5032406;28;20218;-55
2021/03/08 00:10:41;;;;;;;1.90;1.00;;;;;;;-4.26;69.38;97686.44;5032358;28;20025;-55
2021/03/08 00:13:07;;;;;;;1.70;0.70;;;;;;;-4.28;69.02;97690.66;5031921;28;20029;-56
2021/03/08 00:15:33;;;;;;;1.25;0.90;;;;;;;-4.31;69.05;97680.53;5031943;28;20048;-54
2021/03/08 00:17:59;;;;;;;2.78;1.17;;;;;;;-4.52;68.61;97690.53;5030994;28;20024;-55
2021/03/08 00:20:27;;;;;;;1.42;1.05;;;;;;;-4.36;70.33;97695.66;5030743;28;20026;-54
2021/03/08 00:22:56;;;;;;;4.03;0.98;;;;;;;-4.33;69.69;97695.69;5031855;28;20019;-55
2021/03/08 00:25:25;;;;;;;1.45;0.80;;;;;;;-4.39;70.07;97700.69;5031632;28;20376;-54
2021/03/08 00:27:52;;;;;;;0.90;0.80;;;;;;;-4.64;69.12;97700.56;5030961;28;20030;-55
2021/03/08 00:30:18;;;;;;;3.67;1.10;;;;;;;-4.57;69.98;97686.28;5031492;28;20033;-54
2021/03/08 00:32:45;;;;;;;5.88;1.10;;;;;;;-4.43;69.84;97689.75;5032180;28;20231;-55
2021/03/08 00:35:12;;;;;;;1.25;1.02;;;;;;;-4.48;69.86;97693.91;5031436;28;20033;-55
2021/03/08 00:37:38;;;;;;;0.80;0.70;;;;;;;-4.35;69.50;97685.59;5032774;28;20183;-55
2021/03/08 00:40:12;;;;;;;1.90;1.00;;;;;;;-4.34;68.46;97678.84;5032712;28;20283;-54
2021/03/08 00:42:39;;;;;;;1.90;0.75;;;;;;;-4.49;68.97;97678.75;5037392;28;20056;-55
2021/03/08 00:45:26;;;;;;;2.03;0.88;;;;;;;-4.57;68.53;97661.03;5032384;28;20017;-55
2021/03/08 00:47:52;;;;;;;1.80;1.05;;;;;;;-4.35;70.11;97685.59;5032593;28;20034;-56
2021/03/08 00:50:26;;;;;;;2.97;1.00;;;;;;;-4.36;69.50;97683.03;5032429;28;20210;-56
2021/03/08 00:52:52;;;;;;;2.30;1.00;;;;;;;-4.43;68.16;97679.63;5031585;28;20044;-56
2021/03/08 00:55:20;;;;;;;2.58;1.05;;;;;;;-4.37;68.69;97673.78;5030918;28;20040;-54
2021/03/08 00:57:47;;;;;;;2.22;0.80;;;;;;;-4.34;69.13;97678.84;5030942;28;20072;-54
2021/03/08 01:00:16;;;;;;;1.20;0.93;;;;;;;-4.67;69.00;97629.84;5031853;28;20021;-55
2021/03/08 01:02:42;;;;;;;2.92;1.05;;;;;;;-4.44;69.61;97672.06;5031914;28;20026;-55
2021/03/08 01:05:08;;;;;;;1.83;0.90;;;;;;;-4.46;67.81;97659.41;5030024;28;20028;-54
2021/03/08 01:07:35;;;;;;;2.33;1.00;;;;;;;-4.42;67.66;97671.19;5031561;28;20037;-54
2021/03/08 01:10:08;;;;;;;1.30;0.85;;;;;;;-4.45;67.82;97656.03;5032515;28;20045;-54
2021/03/08 01:12:35;;;;;;;1.25;0.65;;;;;;;-4.62;66.86;97657.63;5032563;28;20053;-54
2021/03/08 01:15:01;;;;;;;1.02;0.90;;;;;;;-4.35;66.84;97662.84;5045403;28;20376;-56
2021/03/08 01:17:27;;;;;;;1.77;0.88;;;;;;;-4.37;69.26;97659.47;5034225;28;20029;-56
2021/03/08 01:19:53;;;;;;;0.70;0.68;;;;;;;-4.29;68.87;97656.97;5034505;28;20064;-54
2021/03/08 01:22:18;;;;;;;1.65;0.93;;;;;;;-4.44;67.00;97647.63;5034988;28;20033;-55
2021/03/08 01:24:44;;;;;;;2.05;0.70;;;;;;;-4.42;67.00;97658.56;5036294;28;20041;-54
2021/03/08 01:27:10;;;;;;;2.70;0.95;;;;;;;-4.26;66.93;97659.53;5036707;28;20036;-54
2021/03/08 01:29:36;;;;;;;1.83;0.73;;;;;;;-4.56;66.89;97661.06;5036326;28;20029;-54
2021/03/08 01:32:02;;;;;;;2.15;0.80;;;;;;;-4.55;66.10;97659.34;5031261;28;20191;-55
2021/03/08 01:34:28;;;;;;;1.13;0.70;;;;;;;-4.44;66.10;97657.75;5036752;28;20014;-54
2021/03/08 01:36:54;;;;;;;0.73;0.70;;;;;;;-4.43;65.92;97661.97;5029488;28;20030;-55
2021/03/08 01:39:20;;;;;;;1.70;0.70;;;;;;;-4.36;66.59;97656.09;5030613;28;20020;-55
2021/03/08 01:41:46;;;;;;;1.10;0.60;;;;;;;-4.57;67.75;97663.56;5032747;28;20052;-55
2021/03/08 01:44:12;;;;;;;1.38;0.88;;;;;;;-4.61;67.27;97660.16;5035144;28;20166;-55
2021/03/08 01:46:38;;;;;;;3.00;0.85;;;;;;;-4.47;66.07;97672.03;5035890;28;20033;-55
2021/03/08 01:49:05;;;;;;;1.77;0.55;;;;;;;-4.30;65.17;97669.56;5032223;28;20337;-55
2021/03/08 01:51:32;;;;;;;1.00;0.70;;;;;;;-4.32;64.51;97671.28;5032364;28;20022;-55
2021/03/08 01:53:58;;;;;;;3.08;1.20;;;;;;;-4.53;65.24;97677.91;5035429;28;20053;-54
2021/03/08 01:56:24;;;;;;;2.90;0.88;;;;;;;-4.39;66.02;97666.19;5037654;28;20032;-54
2021/03/08 01:58:51;;;;;;;3.00;0.80;;;;;;;-4.25;64.79;97667.94;5037476;28;20026;-55
2021/03/08 02:01:17;;;;;;;1.27;0.80;;;;;;;-4.28;63.29;97670.44;5036786;28;20075;-55
2021/03/08 02:03:43;;;;;;;0.95;0.65;;;;;;;-4.45;63.93;97673.72;5034995;28;20022;-55
2021/03/08 02:06:09;;;;;;;1.00;0.70;;;;;;;-4.63;63.75;97666.03;5035731;28;20317;-54
2021/03/08 02:08:35;;;;;;;0.95;0.60;;;;;;;-4.42;63.62;97663.63;5034954;28;20025;-55
2021/03/08 02:11:01;;;;;;;1.92;0.73;;;;;;;-4.56;64.52;97670.28;5036778;28;20030;-55
2021/03/08 02:13:45;;;;;;;3.70;0.80;;;;;;;-4.36;66.54;97676.31;5037978;28;20030;-55
2021/03/08 02:16:14;;;;;;;0.70;0.43;;;;;;;-4.30;64.73;97674.63;5035919;28;20034;-55
2021/03/08 02:18:57;;;;;;;2.30;0.57;;;;;;;-4.28;64.89;97680.56;5039486;28;20203;-55
2021/03/08 02:21:41;;;;;;;3.97;0.70;;;;;;;-4.41;65.40;97665.31;5039345;28;20325;-54
2021/03/08 02:24:29;;;;;;;2.05;1.33;;;;;;;-4.79;65.17;97594.41;5035396;28;20056;-55
2021/03/08 02:27:03;;;;;;;2.20;1.00;;;;;;;-4.93;65.60;97595.19;5037118;28;20026;-56
2021/03/08 02:29:47;;;;;;;5.60;1.17;;;;;;;-4.78;66.17;97671.84;5038673;28;20026;-54
2021/03/08 02:32:16;;;;;;;1.42;0.75;;;;;;;-4.77;64.98;97634.00;5037446;28;20021;-55
2021/03/08 02:35:16;;;;;;;2.17;0.70;;;;;;;-4.55;66.28;97677.88;5036360;28;20092;-55
2021/03/08 02:37:57;;;;;;;1.65;0.70;;;;;;;-4.64;65.75;97674.47;5034316;28;20037;-56
2021/03/08 02:40:55;;;;;;;3.30;0.90;;;;;;;-4.64;67.26;97669.41;5034201;28;20904;-55
2021/03/08 02:43:43;;;;;;;3.13;0.90;;;;;;;-4.51;68.08;97664.44;5033910;28;20041;-55
2021/03/08 02:46:27;;;;;;;1.85;0.73;;;;;;;-4.57;68.14;97674.50;5037416;28;20029;-55
2021/03/08 02:48:56;;;;;;;2.92;0.90;;;;;;;-4.72;68.16;97651.69;5032804;28;20045;-54
2021/03/08 02:51:26;;;;;;;3.03;0.80;;;;;;;-4.55;67.88;97674.50;5035934;28;20037;-54
2021/03/08 02:53:57;;;;;;;1.50;0.73;;;;;;;-4.89;67.30;97619.63;5034117;28;20385;-55
2021/03/08 02:56:31;;;;;;;2.50;0.88;;;;;;;-4.62;67.63;97667.75;5034908;28;20269;-55
2021/03/08 02:58:59;;;;;;;1.27;0.88;;;;;;;-5.11;66.15;97595.06;5035276;28;20093;-55
2021/03/08 03:01:26;;;;;;;3.15;0.93;;;;;;;-4.54;66.38;97668.63;5036628;28;20031;-54
2021/03/08 03:03:57;;;;;;;1.83;0.80;;;;;;;-4.38;66.82;97670.38;5044575;28;20021;-54
2021/03/08 03:06:34;;;;;;;3.55;0.80;;;;;;;-4.47;66.80;97670.34;5045142;28;20135;-55
2021/03/08 03:09:05;;;;;;;2.03;1.15;;;;;;;-4.50;66.03;97672.88;5045736;28;20222;-55
2021/03/08 03:11:33;;;;;;;1.20;0.85;;;;;;;-5.24;65.39;97586.56;5045723;28;20071;-54
2021/03/08 03:14:02;;;;;;;1.58;0.68;;;;;;;-4.77;66.22;97613.78;5045740;28;20033;-54
2021/03/08 03:16:30;;;;;;;1.02;0.75;;;;;;;-4.72;66.24;97666.81;5045650;28;20033;-54
2021/03/08 03:18:58;;;;;;;3.20;0.90;;;;;;;-4.62;66.83;97688.78;5045476;28;20388;-55
2021/03/08 03:21:29;;;;;;;1.00;0.73;;;;;;;-4.61;65.47;97677.00;5045316;28;20321;-55
2021/03/08 03:23:56;;;;;;;0.70;0.70;;;;;;;-4.73;65.91;97685.31;5045662;28;20079;-55
2021/03/08 03:26:23;;;;;;;1.70;0.75;;;;;;;-4.73;64.65;97678.63;5045376;28;20144;-55
2021/03/08 03:28:50;;;;;;;1.23;0.70;;;;;;;-4.78;65.00;97672.69;5045344;28;20133;-56
2021/03/08 03:31:17;;;;;;;2.65;0.90;;;;;;;-4.83;64.99;97679.41;5044132;28;20025;-56
2021/03/08 03:33:45;;;;;;;1.63;0.80;;;;;;;-5.10;65.28;97653.13;5045245;28;20033;-54
2021/03/08 03:36:12;;;;;;;1.85;0.73;;;;;;;-4.83;66.46;97674.34;5044997;28;20387;-54
2021/03/08 03:38:40;;;;;;;2.55;0.90;;;;;;;-4.79;66.02;97668.47;5039291;28;20025;-54
2021/03/08 03:41:06;;;;;;;1.85;0.90;;;;;;;-4.97;64.80;97660.75;5045063;28;20078;-57
2021/03/08 03:43:33;;;;;;;1.77;0.70;;;;;;;-4.91;64.02;97671.75;5041696;28;20044;-54
2021/03/08 03:46:03;;;;;;;3.22;0.70;;;;;;;-4.92;63.76;97679.31;5045033;28;20072;-54
2021/03/08 03:48:32;;;;;;;1.23;0.60;;;;;;;-5.28;64.36;97600.81;5044714;28;20036;-54
2021/03/08 03:50:58;;;;;;;1.35;0.70;;;;;;;-4.76;65.14;97665.13;5044904;28;20089;-55
2021/03/08 03:53:24;;;;;;;0.75;0.68;;;;;;;-4.77;65.01;97676.06;5044784;28;20029;-56
2021/03/08 03:55:50;;;;;;;0.88;0.60;;;;;;;-4.99;64.83;97677.56;5044788;28;20033;-55
2021/03/08 03:58:28;;;;;;;2.08;0.80;;;;;;;-4.88;66.40;97678.50;5044575;28;20022;-55
2021/03/08 04:01:00;;;;;;;2.03;0.80;;;;;;;-5.14;67.30;97679.16;5042273;28;20021;-54
2021/03/08 04:03:58;;;;;;;1.92;0.75;;;;;;;-4.80;68.05;97681.06;5043446;28;20049;-54
2021/03/08 04:06:32;;;;;;;0.88;0.70;;;;;;;-4.79;68.46;97676.03;5044211;28;20234;-55
2021/03/08 04:09:00;;;;;;;1.63;0.77;;;;;;;-4.85;66.92;97665.91;5044481;28;20030;-53
2021/03/08 04:11:33;;;;;;;1.13;0.80;;;;;;;-5.05;69.09;97689.31;5044321;28;20032;-54
2021/03/08 04:14:02;;;;;;;2.55;1.08;;;;;;;-5.21;68.43;97602.56;5044415;28;20021;-54
2021/03/08 04:16:31;;;;;;;1.30;0.77;;;;;;;-4.96;69.12;97688.56;5043214;28;20111;-55
2021/03/08 04:19:00;;;;;;;0.82;0.73;;;;;;;-4.79;67.45;97687.81;5044329;28;20029;-55
2021/03/08 04:21:27;;;;;;;2.97;1.00;;;;;;;-5.03;67.23;97687.66;5044229;28;20076;-55
2021/03/08 04:23:56;;;;;;;2.03;0.80;;;;;;;-5.21;68.46;97682.47;5042186;28;20246;-54
2021/03/08 04:26:22;;;;;;;2.67;0.82;;;;;;;-4.96;69.95;97690.22;5042985;28;20029;-55
2021/03/08 04:28:50;;;;;;;1.35;0.90;;;;;;;-4.71;67.96;97697.13;5043970;28;20017;-55
2021/03/08 04:31:17;;;;;;;2.00;0.90;;;;;;;-5.12;68.56;97632.06;5043922;28;20248;-54
2021/03/08 04:33:46;;;;;;;0.85;0.77;;;;;;;-4.86;67.92;97699.53;5042525;28;20094;-54
2021/03/08 04:36:12;;;;;;;1.80;1.00;;;;;;;-5.00;69.14;97706.16;5039152;28;20222;-55
2021/03/08 04:38:42;;;;;;;2.33;1.23;;;;;;;-4.85;69.27;97726.47;5038671;28;20310;-55
2021/03/08 04:41:09;;;;;;;1.90;1.27;;;;;;;-4.74;68.96;97708.91;5043870;28;20026;-55
2021/03/08 04:43:37;;;;;;;3.17;1.73;;;;;;;-5.10;68.85;97693.50;5035975;28;20025;-54
2021/03/08 04:46:05;;;;;;;1.15;0.90;;;;;;;-5.23;68.25;97674.00;5040005;28;20371;-54
2021/03/08 04:48:34;;;;;;;2.85;1.00;;;;;;;-5.40;68.77;97666.28;5043667;28;20029;-56
2021/03/08 04:51:03;;;;;;;1.48;0.90;;;;;;;-5.01;69.35;97714.59;5043836;28;20025;-55
2021/03/08 04:53:30;;;;;;;4.78;1.10;;;;;;;-5.15;68.57;97722.88;5043680;28;20021;-55
2021/03/08 04:55:57;;;;;;;3.20;0.88;;;;;;;-5.45;68.68;97643.56;5043892;28;20025;-56
2021/03/08 04:58:23;;;;;;;1.98;0.80;;;;;;;-5.17;67.55;97739.69;5042472;28;20017;-56
2021/03/08 05:00:49;;;;;;;4.07;0.73;;;;;;;-5.22;68.55;97731.22;5043766;28;20033;-54
2021/03/08 05:03:15;;;;;;;1.23;0.70;;;;;;;-4.96;67.06;97738.16;5043575;28;20025;-54
2021/03/08 05:05:44;;;;;;;3.97;1.08;;;;;;;-5.13;67.96;97746.44;5042537;28;20037;-56
2021/03/08 05:08:14;;;;;;;0.90;0.73;;;;;;;-5.12;67.00;97705.22;5043633;28;20017;-55
2021/03/08 05:10:40;;;;;;;2.47;0.60;;;;;;;-4.89;67.39;97743.31;5035998;28;20036;-54
2021/03/08 05:13:08;;;;;;;2.45;0.90;;;;;;;-5.16;67.75;97678.28;5043601;28;20071;-54
2021/03/08 05:15:35;;;;;;;0.98;0.75;;;;;;;-4.75;68.42;97750.97;5043038;28;20044;-55
2021/03/08 05:18:03;;;;;;;0.68;0.68;;;;;;;-4.60;68.65;97757.81;5042612;28;20030;-55
2021/03/08 05:20:31;;;;;;;0.95;0.60;;;;;;;-5.19;68.41;97690.88;5041783;28;20104;-55
2021/03/08 05:23:00;;;;;;;0.85;0.70;;;;;;;-5.25;67.21;97709.31;5042319;28;20218;-54
2021/03/08 05:25:26;;;;;;;0.82;0.70;;;;;;;-4.76;67.93;97774.53;5040883;28;20026;-56
2021/03/08 05:27:53;;;;;;;1.65;0.98;;;;;;;-5.18;67.99;97732.94;5042679;28;20021;-55
2021/03/08 05:30:22;;;;;;;1.83;0.60;;;;;;;-4.78;67.72;97798.91;5040704;28;20230;-56
2021/03/08 05:33:23;;;;;;;1.88;0.88;;;;;;;-4.82;69.13;97776.16;5041983;28;20218;-55
2021/03/08 05:35:54;;;;;;;3.20;0.80;;;;;;;-5.31;68.51;97743.75;5034923;28;20101;-55
2021/03/08 05:38:26;;;;;;;0.97;0.80;;;;;;;-5.09;67.88;97770.88;5042056;28;20030;-55
2021/03/08 05:41:12;;;;;;;2.10;0.90;;;;;;;-4.77;68.63;97838.47;5040039;28;20606;-56
2021/03/08 05:43:40;;;;;;;2.25;1.10;;;;;;;-5.00;66.89;97756.63;5035458;28;20037;-56
2021/03/08 05:46:16;;;;;;;0.63;0.60;;;;;;;-4.97;68.81;97833.25;5040544;28;20040;-55
2021/03/08 05:48:51;;;;;;;1.30;0.73;;;;;;;-4.88;67.09;97832.47;5042523;28;20377;-55
2021/03/08 05:51:35;;;;;;;1.75;0.95;;;;;;;-5.13;68.00;97774.22;5040787;28;20038;-55
2021/03/08 05:54:23;;;;;;;1.30;0.93;;;;;;;-4.88;66.31;97853.50;5039848;28;20038;-56
2021/03/08 05:57:20;;;;;;;5.10;0.90;;;;;;;-4.77;67.40;97860.38;5042506;28;20094;-55
2021/03/08 06:00:23;;;;;;;1.63;0.80;;;;;;;-4.50;67.68;97857.25;5038893;28;20024;-57
2021/03/08 06:03:06;;;;;;;1.75;1.13;;;;;;;-4.52;65.84;97858.91;5040595;28;20029;-57
2021/03/08 06:05:59;;;;;;;1.52;1.17;;;;;;;-4.55;64.79;97852.13;5041957;28;20176;-55
2021/03/08 06:08:57;;;;;;;3.30;1.10;;;;;;;-4.71;65.36;97802.34;5041381;28;20108;-55
2021/03/08 06:11:24;;;;;;;3.65;1.30;;;;;;;-4.10;64.93;97865.16;5037397;28;20226;-56
2021/03/08 06:13:53;;;;;;;2.10;1.30;;;;;;;-4.01;65.12;97885.41;5037977;28;20022;-55
2021/03/08 06:16:34;;;;;;;3.45;1.27;;;;;;;-4.51;66.61;97860.59;5040356;28;20087;-56
2021/03/08 06:19:05;;;;;;;2.35;1.35;;;;;;;-4.66;64.91;97910.97;5041808;28;20032;-55
2021/03/08 06:21:32;;;;;;;4.53;1.27;;;;;;;-4.36;66.90;97901.16;5036717;28;20083;-56
2021/03/08 06:24:00;;;;;;;2.53;1.48;;;;;;;-4.87;65.78;97837.53;5039345;28;20265;-54
2021/03/08 06:26:28;;;;;;;3.53;1.60;;;;;;;-4.07;64.55;97913.19;5041437;28;20032;-55
2021/03/08 06:28:56;;;;;;;2.70;1.48;;;;;;;-4.45;65.54;97847.19;5040365;28;20032;-56
2021/03/08 06:31:22;;;;;;;2.95;1.20;;;;;;;-3.92;64.47;97919.19;5041187;28;20218;-57
2021/03/08 06:33:48;;;;;;;4.95;1.67;;;;;;;-3.56;64.03;97916.09;5039835;28;20318;-56
2021/03/08 06:36:14;;;;;;;4.38;1.42;;;;;;;-3.56;63.09;97928.72;5038838;28;20013;-55
2021/03/08 06:38:41;;;;;;;2.05;1.27;;;;;;;-3.69;62.13;97919.34;5040819;28;20368;-55
2021/03/08 06:41:08;;;;;;;7.28;3.17;;;;;;;-3.55;61.98;97938.03;5042239;28;20372;-57
2021/03/08 06:43:35;;;;;;;7.80;2.72;;;;;;;-3.50;63.65;97970.94;5045786;28;20025;-54
2021/03/08 06:46:03;;;;;;;3.22;1.83;;;;;;;-3.72;61.90;97953.06;5045465;28;20253;-55
2021/03/08 06:48:30;;;;;;;2.03;1.27;;;;;;;-3.70;63.42;97961.50;5045715;28;20041;-56
2021/03/08 06:51:13;;;;;;;2.83;1.58;;;;;;;-3.77;60.72;97971.59;5045530;28;20056;-54
2021/03/08 06:53:43;;;;;;;3.65;1.60;;;;;;;-3.76;62.78;97968.19;5044930;28;20261;-57
2021/03/08 06:56:20;;;;;;;6.57;1.80;;;;;;;-3.70;61.66;97988.50;5045373;28;20045;-56
2021/03/08 06:59:10;;;;;;;4.55;1.92;;;;;;;-4.09;63.93;97960.38;5043218;28;20024;-54
2021/03/08 07:01:39;;;;;;;6.55;1.88;;;;;;;-3.84;64.74;97985.84;5045328;28;20036;-54
2021/03/08 07:04:14;;;;;;;4.15;1.70;;;;;;;-3.69;62.85;97985.09;5044025;28;20049;-54
2021/03/08 07:06:40;;;;;;;2.67;1.40;;;;;;;-3.70;63.35;97985.97;5041007;28;20021;-55
2021/03/08 07:09:12;;;;;;;4.10;1.70;;;;;;;-4.23;63.53;97924.00;5045164;28;20303;-54
2021/03/08 07:11:38;;;;;;;2.25;1.42;;;;;;;-3.96;63.22;97995.84;5044093;28;20099;-54
2021/03/08 07:14:18;;;;;;;2.45;1.45;;;;;;;-4.21;63.26;97995.63;5042150;28;20037;-54
2021/03/08 07:16:44;;;;;;;1.92;1.35;;;;;;;-3.90;63.86;97989.16;5044249;28;20029;-55
2021/03/08 07:19:10;;;;;;;1.95;1.10;;;;;;;-4.16;61.38;98006.63;5041082;28;20246;-57
2021/03/08 07:21:37;;;;;;;4.03;1.50;;;;;;;-4.07;63.05;98016.81;5033225;28;20036;-55
2021/03/08 07:24:15;;;;;;;3.72;1.45;;;;;;;-3.76;64.05;97994.34;5042579;28;20022;-56
2021/03/08 07:27:07;;;;;;;5.68;1.73;;;;;;;-3.92;62.92;98025.38;5042582;28;20044;-56
2021/03/08 07:29:33;;;;;;;2.35;1.65;;;;;;;-3.63;64.20;98013.00;5035307;28;20057;-55
2021/03/08 07:31:59;;;;;;;4.93;1.98;;;;;;;-3.84;64.04;98017.03;5043024;28;20152;-57
2021/03/08 07:34:25;;;;;;;3.15;1.63;;;;;;;-3.50;64.72;98024.91;5042618;28;20097;-55
2021/03/08 07:37:02;;;;;;;2.60;1.50;;;;;;;-3.90;62.73;97952.94;5042331;28;20044;-55
2021/03/08 07:39:28;;;;;;;1.58;1.20;;;;;;;-3.36;62.63;98030.06;5039297;28;20031;-56
2021/03/08 07:41:55;;;;;;;4.05;1.17;;;;;;;-3.53;64.01;98014.75;5038989;28;20021;-56
2021/03/08 07:44:22;;;;;;;2.83;1.40;;;;;;;-3.49;61.67;98046.84;5043664;28;20033;-55
2021/03/08 07:46:49;;;;;;;1.85;1.30;;;;;;;-3.40;61.68;98030.88;5038016;28;20018;-55
2021/03/08 07:49:15;;;;;;;3.20;1.50;;;;;;;-3.36;62.25;98041.88;5043902;28;20030;-54
2021/03/08 07:52:13;;;;;;;3.90;1.85;;;;;;;-3.23;63.24;98068.13;5044287;28;20021;-55
2021/03/08 07:54:59;;;;;;;2.50;1.73;;;;;;;-3.17;61.83;98046.22;5044065;28;20071;-56
2021/03/08 07:57:27;;;;;;;2.95;1.60;;;;;;;-3.61;62.51;97985.19;5042611;28;20017;-55
2021/03/08 07:59:53;;;;;;;2.90;1.60;;;;;;;-3.44;62.13;98054.47;5044208;28;20059;-55
2021/03/08 08:02:20;;;;;;;1.90;1.50;;;;;;;-3.51;61.04;98072.97;5043991;28;20135;-57
2021/03/08 08:04:45;;;;;;;2.15;1.58;;;;;;;-3.44;62.54;98064.59;5040785;28;20013;-56
2021/03/08 08:07:13;;;;;;;2.38;1.63;;;;;;;-3.99;61.55;98095.25;5043825;28;20092;-56
2021/03/08 08:09:42;;;;;;;1.90;1.40;;;;;;;-3.69;60.96;98053.41;5043630;28;20323;-55
2021/03/08 08:12:11;;;;;;;3.92;1.50;;;;;;;-3.12;61.19;98033.63;5041967;28;20025;-56
2021/03/08 08:14:39;;;;;;;1.85;1.38;;;;;;;-3.46;59.74;98018.19;5043962;28;20075;-55
2021/03/08 08:17:12;;;;;;;3.92;1.80;;;;;;;-3.05;59.72;98093.56;5038851;28;20345;-55
2021/03/08 08:19:53;;;;;;;3.92;1.98;;;;;;;-3.08;59.67;98097.75;5038707;28;20026;-56
2021/03/08 08:22:21;;;;;;;2.80;1.88;;;;;;;-2.94;58.88;98106.28;5042945;28;20017;-55
2021/03/08 08:24:49;;;;;;;3.65;1.55;;;;;;;-3.14;59.71;98116.28;5040319;28;20031;-56
2021/03/08 08:27:16;;;;;;;3.72;1.27;;;;;;;-3.31;58.02;98132.19;5020264;28;20045;-56
2021/03/08 08:29:45;;;;;;;4.20;1.48;;;;;;;-3.61;59.63;98127.69;5021711;28;20225;-56
2021/03/08 08:32:12;;;;;;;4.13;1.48;;;;;;;-3.23;60.02;98141.53;5021706;28;20044;-55
2021/03/08 08:34:41;;;;;;;3.10;2.10;;;;;;;-3.24;60.00;98148.25;5021763;28;20049;-56
2021/03/08 08:37:24;;;;;;;6.78;2.03;;;;;;;-3.35;59.31;98153.25;5021053;28;20049;-56
2021/03/08 08:39:52;;;;;;;3.28;1.98;;;;;;;-3.51;61.92;98158.97;5003632;28;20106;-55
2021/03/08 08:42:21;;;;;;;4.50;1.92;;;;;;;-3.51;61.35;98119.34;5020244;28;20049;-55
2021/03/08 08:44:49;;;;;;;3.83;1.48;;;;;;;-3.30;60.66;98186.19;5021835;28;20029;-56
2021/03/08 08:47:23;;;;;;;4.82;2.20;;;;;;;-3.48;59.23;98098.28;5021656;28;20037;-56
2021/03/08 08:49:55;;;;;;;2.55;1.92;;;;;;;-2.86;57.98;98195.84;5019949;28;20040;-56
2021/03/08 08:52:39;;;;;;;;;;;;;;;-2.69;58.40;98182.47;5021920;28;20042;-55
2021/03/08 08:55:05;;;;;;;2.63;1.45;;;;;;;-2.78;57.77;98183.22;5019175;28;20063;-56
2021/03/08 08:57:32;;;;;;;3.95;1.48;;;;;;;-2.86;57.59;98195.84;5025319;28;20037;-57
2021/03/08 09:00:21;;;;;;;2.70;1.50;;;;;;;-2.97;58.22;98193.22;5042802;28;20036;-55
2021/03/08 09:02:47;;;;;;;3.50;1.58;;;;;;;-3.16;58.15;98191.38;5041036;28;20047;-56
2021/03/08 09:05:29;;;;;;;2.53;1.58;;;;;;;-3.45;57.61;98211.34;5042911;28;20028;-56
2021/03/08 09:08:21;;;;;;;2.67;1.35;;;;;;;-3.48;58.52;98218.06;5042117;28;20029;-56
2021/03/08 09:10:47;;;;;;;2.20;0.98;;;;;;;-3.24;57.64;98218.31;5042489;28;20116;-57
2021/03/08 09:13:13;;;;;;;2.45;1.10;;;;;;;-3.30;57.50;98221.63;5043072;28;20017;-55
2021/03/08 09:15:39;;;;;;;1.75;1.17;;;;;;;-3.20;57.18;98231.00;5042848;28;20045;-55
2021/03/08 09:18:05;;;;;;;2.92;1.30;;;;;;;-2.89;56.91;98250.69;5042729;28;20080;-56
2021/03/08 09:20:33;;;;;;;1.42;1.00;;;;;;;-2.69;56.22;98230.63;5043044;28;20045;-56
2021/03/08 09:23:01;;;;;;;3.13;1.02;;;;;;;-2.70;55.37;98234.81;5042851;28;20013;-55
2021/03/08 09:25:32;;;;;;;2.65;1.08;;;;;;;-2.49;55.31;98215.56;5042643;28;20207;-56
2021/03/08 09:27:58;;;;;;;3.63;1.50;;;;;;;-2.45;55.48;98238.38;5042321;28;20049;-55
2021/03/08 09:30:36;;;;;;;1.45;1.20;;;;;;;-2.26;54.13;98236.81;5042590;28;20253;-57
2021/03/08 09:33:08;;;;;;;2.33;0.82;;;;;;;-2.09;53.81;98247.06;5040370;28;20078;-58
2021/03/08 09:35:41;;;;;;;1.10;1.00;;;;;;;-1.98;53.54;98233.56;5042495;28;20337;-57
2021/03/08 09:38:18;;;;;;;2.20;0.80;;;;;;;-2.28;55.10;98182.72;5039622;28;20036;-57
2021/03/08 09:40:50;;;;;;;2.45;1.13;;;;;;;-2.41;54.96;98248.53;5038746;28;20085;-57
2021/03/08 09:43:31;;;;;;;2.67;1.17;;;;;;;-2.28;55.92;98276.53;5039213;28;20025;-57
2021/03/08 09:46:14;;;;;;;3.38;2.10;;;;;;;-2.34;56.44;98278.16;5042599;28;20075;-56
2021/03/08 09:48:41;;;;;;;2.15;1.58;;;;;;;-2.21;58.09;98277.41;5042889;28;20041;-57
2021/03/08 09:51:12;;;;;;;3.28;1.73;;;;;;;-2.45;56.29;98207.13;5042536;28;20052;-58
2021/03/08 09:53:43;;;;;;;3.13;1.67;;;;;;;-2.28;56.25;98295.94;5042481;28;20021;-59
2021/03/08 09:56:29;;;;;;;1.48;1.00;;;;;;;-2.48;55.64;98288.19;5042669;28;20315;-57
2021/03/08 09:59:00;;;;;;;2.38;1.00;;;;;;;-2.62;54.54;98238.25;5042604;28;20045;-58
2021/03/08 10:01:26;;;;;;;2.10;1.23;;;;;;;-2.06;55.35;98286.81;5041426;28;20036;-57
2021/03/08 10:03:51;;;;;;;3.40;1.77;;;;;;;-2.56;54.44;98290.69;5042547;28;20322;-58
2021/03/08 10:06:36;;;;;;;2.95;1.50;;;;;;;-2.81;55.15;98325.94;5042405;28;20085;-57
2021/03/08 10:09:22;;;;;;;2.08;1.10;;;;;;;-2.63;56.06;98307.50;5039768;28;20318;-61
2021/03/08 10:11:58;;;;;;;1.38;0.90;;;;;;;-2.87;54.51;98314.88;5040792;28;20378;-55
2021/03/08 10:14:26;;;;;;;1.33;1.05;;;;;;;-2.73;52.94;98332.75;5038437;28;20038;-57
2021/03/08 10:17:08;;;;;;;3.55;0.85;;;;;;;-2.78;52.57;98333.56;5045974;28;20113;-58
2021/03/08 10:19:34;;;;;;;;;;;;;;;-2.70;52.01;98336.16;5044957;28;20037;-55
2021/03/08 10:22:00;;;;;;;1.48;0.93;;;;;;;-3.00;53.24;98331.63;5045402;28;19911;-55
2021/03/08 10:24:36;;;;;;;2.85;0.98;;;;;;;-2.85;53.10;98339.41;5045992;28;20097;-56
2021/03/08 10:27:10;;;;;;;2.33;0.93;;;;;;;-2.98;52.25;98343.50;5043527;28;20025;-56
2021/03/08 10:29:38;;;;;;;1.02;0.93;;;;;;;-2.79;54.14;98333.53;5046025;28;20044;-56
2021/03/08 10:32:05;;;;;;;1.92;1.17;;;;;;;-2.79;54.59;98343.69;5044650;28;20210;-57
2021/03/08 10:34:31;;;;;;;1.85;1.05;;;;;;;-2.80;52.99;98360.53;5044021;28;20030;-56
2021/03/08 10:36:58;;;;;;;1.73;1.20;;;;;;;-3.09;55.87;98359.38;5046043;28;20017;-56
2021/03/08 10:39:24;;;;;;;1.90;1.15;;;;;;;-3.00;53.91;98360.31;5045659;28;20096;-57
2021/03/08 10:41:51;;;;;;;1.08;0.90;;;;;;;-3.27;54.98;98370.16;5039188;28;20021;-56
2021/03/08 10:44:19;;;;;;;2.17;1.13;;;;;;;-3.04;54.26;98358.59;5043355;28;20026;-57
2021/03/08 10:46:45;;;;;;;2.45;0.90;;;;;;;-2.82;54.72;98348.69;5045946;28;20021;-56
2021/03/08 10:49:12;;;;;;;1.50;1.10;;;;;;;-3.01;52.90;98368.75;5045796;28;20033;-57
2021/03/08 10:51:40;;;;;;;3.90;1.73;;;;;;;-3.28;55.26;98300.09;5043884;28;20114;-56
2021/03/08 10:54:13;;;;;;;5.43;1.15;;;;;;;-2.84;57.72;98375.69;5042649;28;20036;-55
2021/03/08 10:56:43;;;;;;;1.98;1.17;;;;;;;-2.88;56.18;98373.97;5043140;28;20209;-56
2021/03/08 10:59:23;;;;;;;4.50;1.40;;;;;;;-2.91;53.99;98386.59;5045863;28;20192;-56
2021/03/08 11:02:04;;;;;;;3.47;1.90;;;;;;;-2.68;54.23;98310.81;5039478;28;20017;-56
2021/03/08 11:04:31;;;;;;;2.08;1.30;;;;;;;-2.30;54.81;98379.59;5045600;28;20611;-56
2021/03/08 11:06:57;;;;;;;1.17;1.00;;;;;;;-2.34;53.70;98382.09;5035233;28;20022;-58
2021/03/08 11:09:26;;;;;;;1.60;1.00;;;;;;;-2.12;54.60;98375.53;5043778;28;20070;-56
2021/03/08 11:11:53;;;;;;;3.13;1.08;;;;;;;-2.23;53.69;98375.44;5045568;28;20025;-57
2021/03/08 11:14:20;;;;;;;1.30;0.93;;;;;;;-2.46;53.07;98398.91;5044126;28;20076;-57
2021/03/08 11:16:54;;;;;;;2.60;1.27;;;;;;;-2.48;54.59;98338.88;5044106;28;20045;-57
2021/03/08 11:19:23;;;;;;;3.38;1.48;;;;;;;-2.80;56.12;98388.41;5045177;28;20033;-56
2021/03/08 11:22:04;;;;;;;4.70;1.45;;;;;;;-2.89;59.00;98339.31;5045349;28;20025;-57
2021/03/08 11:24:31;;;;;;;3.50;1.40;;;;;;;-2.73;59.21;98407.06;5045124;28;20037;-57
2021/03/08 11:27:11;;;;;;;3.15;2.13;;;;;;;-3.02;60.12;98338.34;5044737;28;20033;-56
2021/03/08 11:29:39;;;;;;;4.20;2.03;;;;;;;-2.99;58.65;98389.06;5043944;28;20204;-56
2021/03/08 11:32:09;;;;;;;4.80;2.45;;;;;;;-2.96;58.97;98417.78;5045102;28;20059;-56
2021/03/08 11:34:43;;;;;;;3.28;1.85;;;;;;;-2.77;58.27;98420.53;5044861;28;20068;-57
2021/03/08 11:37:14;;;;;;;5.15;2.45;;;;;;;-2.88;59.08;98348.63;5044954;28;20025;-57
2021/03/08 11:39:41;;;;;;;;;;;;;;;-2.91;57.91;98429.66;5036873;28;20048;-56
2021/03/08 11:42:07;;;;;;;4.13;1.95;;;;;;;-2.60;58.99;98426.63;5040662;28;19950;-56
2021/03/08 11:44:34;;;;;;;3.30;1.38;;;;;;;-2.60;57.36;98435.91;5039538;28;20088;-56
2021/03/08 11:46:59;;;;;;;4.78;2.05;;;;;;;-2.97;57.18;98440.56;5044973;28;20097;-56
2021/03/08 11:49:26;;;;;;;4.50;2.40;;;;;;;-2.80;57.78;98438.22;5044811;28;20021;-57
2021/03/08 11:51:52;;;;;;;2.88;1.70;;;;;;;-2.86;57.96;98444.06;5045126;28;20018;-57